createdAt,value
2023-08-25T00:01:35.432Z,100932.91
2023-08-25T00:04:04.332Z,100923.03
2023-08-25T00:06:35.520Z,100922.94
2023-08-25T00:09:05.017Z,100920.91
2023-08-25T00:11:31.591Z,100922.81
2023-08-25T00:14:02.677Z,100919.97
2023-08-25T00:16:31.751Z,100925.53
2023-08-25T00:18:58.509Z,100921.13
2023-08-25T00:21:28.143Z,100923.28
2023-08-25T00:23:54.685Z,100923.50
2023-08-25T00:26:26.055Z,100926.03
2023-08-25T00:28:52.670Z,100930.22
2023-08-25T00:31:21.732Z,100938.25
2023-08-25T00:33:51.696Z,100937.16
2023-08-25T00:36:20.067Z,100929.56
2023-08-25T00:38:46.831Z,100930.81
2023-08-25T00:41:13.354Z,100941.38
2023-08-25T00:43:42.357Z,100946.50
2023-08-25T00:46:09.705Z,100945.91
2023-08-25T00:48:37.330Z,100933.09
2023-08-25T00:51:05.635Z,100936.88
2023-08-25T00:53:34.123Z,100937.13
2023-08-25T00:56:06.171Z,100935.75
2023-08-25T00:58:33.221Z,100942.00
2023-08-25T01:01:04.771Z,100936.44
2023-08-25T01:03:31.458Z,100935.13
2023-08-25T01:05:59.186Z,100925.94
2023-08-25T01:08:34.771Z,100928.88
2023-08-25T01:11:27.398Z,100930.69
2023-08-25T01:14:05.101Z,100930.84
2023-08-25T01:16:39.004Z,100925.53
2023-08-25T01:19:15.751Z,100916.59
2023-08-25T01:21:51.737Z,100918.31
2023-08-25T01:24:24.413Z,100922.84
2023-08-25T01:26:55.411Z,100915.13
2023-08-25T01:29:21.924Z,100918.28
2023-08-25T01:31:53.671Z,100920.34
2023-08-25T01:34:20.282Z,100923.38
2023-08-25T01:36:58.688Z,100917.16
2023-08-25T01:39:34.525Z,100921.81
2023-08-25T01:42:08.451Z,100932.22
2023-08-25T01:44:39.240Z,100927.00
2023-08-25T01:47:07.944Z,100923.06
2023-08-25T01:49:37.536Z,100917.28
2023-08-25T01:52:04.963Z,100924.78
2023-08-25T01:54:33.976Z,100911.19
2023-08-25T01:57:05.462Z,100914.72
2023-08-25T01:59:32.102Z,100909.53
2023-08-25T02:02:00.189Z,100912.66
2023-08-25T02:04:29.388Z,100916.88
2023-08-25T02:07:01.337Z,100903.88
2023-08-25T02:09:27.868Z,100915.28
2023-08-25T02:12:00.562Z,100912.34
2023-08-25T02:14:27.396Z,100920.94
2023-08-25T02:16:56.992Z,100914.28
2023-08-25T02:19:23.489Z,100909.50
2023-08-25T02:21:49.998Z,100908.56
2023-08-25T02:24:16.550Z,100901.44
2023-08-25T02:26:44.206Z,100891.41
2023-08-25T02:29:11.927Z,100895.69
2023-08-25T02:31:38.958Z,100890.91
2023-08-25T02:34:05.544Z,100885.00
2023-08-25T02:36:34.457Z,100889.31
2023-08-25T02:39:04.388Z,100883.66
2023-08-25T02:41:31.261Z,100888.59
2023-08-25T02:44:01.296Z,100878.97
2023-08-25T02:46:33.352Z,100876.72
2023-08-25T02:48:59.870Z,100876.22
2023-08-25T02:51:27.279Z,100868.16
2023-08-25T02:53:53.815Z,100866.91
2023-08-25T02:56:21.801Z,100867.72
2023-08-25T02:58:50.629Z,100864.06
2023-08-25T03:01:17.145Z,100860.44
2023-08-25T03:03:45.241Z,100854.44
2023-08-25T03:06:14.686Z,100846.63
2023-08-25T03:08:47.351Z,100848.19
2023-08-25T03:11:14.000Z,100843.31
2023-08-25T03:13:40.538Z,100843.81
2023-08-25T03:16:09.405Z,100846.41
2023-08-25T03:18:38.448Z,100831.78
2023-08-25T03:21:08.158Z,100826.59
2023-08-25T03:23:37.117Z,100832.56
2023-08-25T03:26:06.263Z,100836.13
2023-08-25T03:28:32.839Z,100835.34
2023-08-25T03:31:00.772Z,100832.50
2023-08-25T03:33:29.776Z,100834.09
2023-08-25T03:35:58.791Z,100829.69
2023-08-25T03:38:27.412Z,100831.94
2023-08-25T03:41:03.937Z,100830.13
2023-08-25T03:43:40.605Z,100836.38
2023-08-25T03:46:12.022Z,100817.38
2023-08-25T03:48:38.592Z,100819.97
2023-08-25T03:51:08.219Z,100819.97
2023-08-25T03:53:37.235Z,100821.00
2023-08-25T03:56:05.445Z,100823.34
2023-08-25T03:58:32.017Z,100811.13
2023-08-25T04:00:59.949Z,100816.31
2023-08-25T04:03:26.686Z,100811.91
2023-08-25T04:05:53.293Z,100809.06
2023-08-25T04:08:19.898Z,100798.88
2023-08-25T04:10:46.708Z,100808.28
2023-08-25T04:13:18.134Z,100810.88
2023-08-25T04:15:45.033Z,100804.00
2023-08-25T04:18:11.758Z,100801.91
2023-08-25T04:20:43.057Z,100794.09
2023-08-25T04:23:10.136Z,100798.81
2023-08-25T04:25:38.817Z,100794.97
2023-08-25T04:28:06.608Z,100790.53
2023-08-25T04:30:33.242Z,100784.53
2023-08-25T04:33:02.751Z,100785.88
2023-08-25T04:35:31.458Z,100785.63
2023-08-25T04:38:03.240Z,100776.81
2023-08-25T04:40:31.207Z,100780.41
2023-08-25T04:42:57.598Z,100776.81
2023-08-25T04:45:24.161Z,100779.41
2023-08-25T04:47:50.657Z,100782.22
2023-08-25T04:50:22.264Z,100780.91
2023-08-25T04:52:48.975Z,100778.84
2023-08-25T04:55:15.478Z,100779.63
2023-08-25T04:57:46.937Z,100778.63
2023-08-25T05:00:16.374Z,100773.97
2023-08-25T05:02:43.033Z,100784.38
2023-08-25T05:05:13.049Z,100782.56
2023-08-25T05:07:40.245Z,100781.31
2023-08-25T05:10:10.424Z,100781.84
2023-08-25T05:12:42.816Z,100780.56
2023-08-25T05:15:12.111Z,100782.72
2023-08-25T05:17:40.890Z,100781.34
2023-08-25T05:20:09.874Z,100770.41
2023-08-25T05:22:36.536Z,100767.88
2023-08-25T05:25:08.750Z,100768.97
2023-08-25T05:27:37.778Z,100773.75
2023-08-25T05:30:04.856Z,100764.44
2023-08-25T05:32:31.421Z,100769.97
2023-08-25T05:35:01.256Z,100784.00
2023-08-25T05:37:27.861Z,100767.13
2023-08-25T05:39:57.105Z,100773.19
2023-08-25T05:42:29.097Z,100782.09
2023-08-25T05:44:55.963Z,100777.19
2023-08-25T05:47:24.814Z,100769.91
2023-08-25T05:49:51.497Z,100771.50
2023-08-25T05:52:20.197Z,100773.63
2023-08-25T05:54:49.139Z,100766.59
2023-08-25T05:57:17.975Z,100767.91
2023-08-25T05:59:47.183Z,100766.88
2023-08-25T06:02:15.238Z,100764.53
2023-08-25T06:04:45.609Z,100760.63
2023-08-25T06:07:13.520Z,100761.72
2023-08-25T06:09:43.931Z,100759.44
2023-08-25T06:12:13.002Z,100758.50
2023-08-25T06:14:41.649Z,100753.59
2023-08-25T06:17:14.078Z,100759.34
2023-08-25T06:19:44.431Z,100754.91
2023-08-25T06:22:13.410Z,100759.41
2023-08-25T06:24:41.486Z,100752.66
2023-08-25T06:27:09.362Z,100757.94
2023-08-25T06:29:37.948Z,100754.03
2023-08-25T06:32:04.757Z,100760.59
2023-08-25T06:34:34.754Z,100754.34
2023-08-25T06:37:06.574Z,100762.97
2023-08-25T06:39:35.649Z,100768.72
2023-08-25T06:42:03.900Z,100777.03
2023-08-25T06:44:30.943Z,100777.81
2023-08-25T06:46:59.257Z,100771.31
2023-08-25T06:49:32.843Z,100776.84
2023-08-25T06:52:07.016Z,100782.31
2023-08-25T06:54:35.722Z,100781.75
2023-08-25T06:57:04.666Z,100783.09
2023-08-25T06:59:31.201Z,100779.44
2023-08-25T07:02:00.081Z,100771.13
2023-08-25T07:04:31.706Z,100767.81
2023-08-25T07:06:58.530Z,100765.06
2023-08-25T07:09:25.073Z,100756.53
2023-08-25T07:11:56.616Z,100746.84
2023-08-25T07:14:23.187Z,100751.31
2023-08-25T07:16:49.725Z,100752.44
2023-08-25T07:19:17.950Z,100759.03
2023-08-25T07:21:44.977Z,100760.44
2023-08-25T07:24:15.663Z,100756.53
2023-08-25T07:26:44.747Z,100743.22
2023-08-25T07:29:16.113Z,100746.59
2023-08-25T07:31:45.997Z,100747.38
2023-08-25T07:34:12.581Z,100733.81
2023-08-25T07:36:39.658Z,100733.06
2023-08-25T07:39:08.926Z,100737.63
2023-08-25T07:41:37.838Z,100744.41
2023-08-25T07:44:07.871Z,100744.94
2023-08-25T07:46:39.890Z,100741.28
2023-08-25T07:49:11.782Z,100742.06
2023-08-25T07:51:41.334Z,100747.50
2023-08-25T07:54:08.399Z,100748.31
2023-08-25T07:56:37.993Z,100744.44
2023-08-25T07:59:04.648Z,100744.41
2023-08-25T08:01:31.956Z,100734.97
2023-08-25T08:04:02.872Z,100726.31
2023-08-25T08:06:31.203Z,100711.19
2023-08-25T08:08:57.810Z,100710.22
2023-08-25T08:11:24.394Z,100721.94
2023-08-25T08:13:55.481Z,100744.03
2023-08-25T08:16:22.276Z,100752.94
2023-08-25T08:18:48.932Z,100754.00
2023-08-25T08:21:18.716Z,100756.38
2023-08-25T08:23:45.580Z,100763.13
2023-08-25T08:26:15.090Z,100772.00
2023-08-25T08:28:43.905Z,100777.50
2023-08-25T08:31:19.402Z,100770.41
2023-08-25T08:33:50.469Z,100769.53
2023-08-25T08:36:22.774Z,100767.66
2023-08-25T08:38:57.045Z,100774.72
2023-08-25T08:41:30.583Z,100767.41
2023-08-25T08:44:06.490Z,100775.88
2023-08-25T08:46:40.764Z,100773.28
2023-08-25T08:49:11.011Z,100774.88
2023-08-25T08:51:39.265Z,100768.03
2023-08-25T08:54:07.809Z,100765.84
2023-08-25T08:56:35.316Z,100771.06
2023-08-25T08:59:04.949Z,100768.41
2023-08-25T09:01:32.953Z,100776.75
2023-08-25T09:04:07.299Z,100779.00
2023-08-25T09:06:39.028Z,100781.00
2023-08-25T09:09:09.823Z,100779.16
2023-08-25T09:11:38.859Z,100780.97
2023-08-25T09:14:05.586Z,100782.59
2023-08-25T09:16:38.426Z,100792.50
2023-08-25T09:19:06.236Z,100790.94
2023-08-25T09:21:35.129Z,100782.53
2023-08-25T09:24:05.490Z,100787.81
2023-08-25T09:26:39.872Z,100786.28
2023-08-25T09:29:11.581Z,100787.09
2023-08-25T09:31:43.170Z,100792.06
2023-08-25T09:34:17.136Z,100795.97
2023-08-25T09:36:54.894Z,100790.72
2023-08-25T09:39:22.285Z,100780.50
2023-08-25T09:41:49.521Z,100785.50
2023-08-25T09:44:19.386Z,100775.06
2023-08-25T09:46:48.765Z,100785.84
2023-08-25T09:49:15.756Z,100795.88
2023-08-25T09:51:44.602Z,100788.56
2023-08-25T09:54:17.175Z,100790.09
2023-08-25T09:56:49.545Z,100782.59
2023-08-25T09:59:17.299Z,100786.78
2023-08-25T10:01:45.724Z,100794.63
2023-08-25T10:04:14.256Z,100787.88
2023-08-25T10:06:44.438Z,100787.66
2023-08-25T10:09:11.365Z,100782.44
2023-08-25T10:11:57.842Z,100787.75
2023-08-25T10:14:25.382Z,100775.50
2023-08-25T10:16:53.854Z,100776.03
2023-08-25T10:19:32.145Z,100768.47
2023-08-25T10:22:02.927Z,100760.66
2023-08-25T10:24:31.913Z,100759.63
2023-08-25T10:27:00.400Z,100769.84
2023-08-25T10:29:30.307Z,100764.38
2023-08-25T10:32:07.872Z,100768.81
2023-08-25T10:34:38.695Z,100762.00
2023-08-25T10:37:06.269Z,100757.81
2023-08-25T10:39:51.865Z,100764.59
2023-08-25T10:42:31.866Z,100760.69
2023-08-25T10:45:02.560Z,100752.56
2023-08-25T10:47:34.391Z,100752.81
2023-08-25T10:50:02.325Z,100743.84
2023-08-25T10:52:28.901Z,100739.53
2023-08-25T10:54:55.485Z,100746.13
2023-08-25T10:57:29.150Z,100737.53
2023-08-25T10:59:58.607Z,100748.59
2023-08-25T11:02:38.095Z,100755.44
2023-08-25T11:05:30.251Z,100750.03
2023-08-25T11:08:02.218Z,100747.34
2023-08-25T11:10:31.737Z,100750.97
2023-08-25T11:13:09.367Z,100754.91
2023-08-25T11:15:42.400Z,100746.63
2023-08-25T11:18:12.348Z,100740.44
2023-08-25T11:20:45.957Z,100739.03
2023-08-25T11:23:20.179Z,100751.09
2023-08-25T11:25:47.935Z,100753.50
2023-08-25T11:28:15.750Z,100764.88
2023-08-25T11:30:48.677Z,100762.75
2023-08-25T11:33:22.993Z,100753.19
2023-08-25T11:35:49.981Z,100753.19
2023-08-25T11:38:18.001Z,100761.16
2023-08-25T11:40:44.502Z,100757.47
2023-08-25T11:43:11.076Z,100756.28
2023-08-25T11:45:41.034Z,100769.78
2023-08-25T11:48:11.216Z,100761.31
2023-08-25T11:50:40.989Z,100746.88
2023-08-25T11:53:11.034Z,100746.38
2023-08-25T11:55:37.699Z,100745.19
2023-08-25T11:58:12.956Z,100760.88
2023-08-25T12:00:39.810Z,100771.44
2023-08-25T12:03:16.842Z,100770.66
2023-08-25T12:05:45.713Z,100760.25
2023-08-25T12:08:15.487Z,100758.44
2023-08-25T12:10:42.037Z,100755.44
2023-08-25T12:13:08.612Z,100753.19
2023-08-25T12:15:46.917Z,100750.94
2023-08-25T12:18:14.336Z,100739.63
2023-08-25T12:20:45.652Z,100739.53
2023-08-25T12:23:15.292Z,100736.50
2023-08-25T12:25:46.595Z,100730.22
2023-08-25T12:28:13.167Z,100744.88
2023-08-25T12:30:41.342Z,100738.38
2023-08-25T12:33:11.366Z,100740.97
2023-08-25T12:35:39.248Z,100727.09
2023-08-25T12:38:05.750Z,100727.03
2023-08-25T12:40:38.672Z,100725.78
2023-08-25T12:43:05.245Z,100725.44
2023-08-25T12:45:31.782Z,100727.59
2023-08-25T12:47:58.695Z,100724.75
2023-08-25T12:50:25.452Z,100727.09
2023-08-25T12:52:57.038Z,100722.84
2023-08-25T12:55:28.481Z,100708.22
2023-08-25T12:57:58.001Z,100700.19
2023-08-25T13:00:27.743Z,100715.81
2023-08-25T13:02:54.559Z,100708.78
2023-08-25T13:05:24.518Z,100710.63
2023-08-25T13:07:51.413Z,100709.16
2023-08-25T13:10:23.456Z,100708.38
2023-08-25T13:12:52.243Z,100697.25
2023-08-25T13:15:21.554Z,100698.06
2023-08-25T13:17:49.772Z,100697.00
2023-08-25T13:20:16.351Z,100695.19
2023-08-25T13:22:49.571Z,100689.19
2023-08-25T13:25:18.339Z,100685.91
2023-08-25T13:30:16.494Z,100674.69
2023-08-25T13:32:47.836Z,100670.75
2023-08-25T13:35:14.509Z,100675.78
2023-08-25T13:37:47.383Z,100681.53
2023-08-25T13:40:13.931Z,100672.63
2023-08-25T13:42:40.613Z,100664.47
2023-08-25T13:45:13.008Z,100672.66
2023-08-25T13:47:39.721Z,100689.31
2023-08-25T13:50:06.985Z,100702.47
2023-08-25T13:52:33.598Z,100701.19
2023-08-25T13:55:05.515Z,100682.88
2023-08-25T13:57:32.739Z,100675.56
2023-08-25T14:00:00.104Z,100692.31
2023-08-25T14:02:27.638Z,100694.44
2023-08-25T14:04:54.472Z,100698.63
2023-08-25T14:07:22.295Z,100711.94
2023-08-25T14:09:48.957Z,100714.00
2023-08-25T14:12:18.535Z,100711.13
2023-08-25T14:14:49.319Z,100699.34
2023-08-25T14:17:17.166Z,100696.47
2023-08-25T14:19:43.986Z,100685.50
2023-08-25T14:22:12.826Z,100698.56
2023-08-25T14:24:40.883Z,100686.25
2023-08-25T14:27:08.975Z,100681.28
2023-08-25T14:29:35.599Z,100690.13
2023-08-25T14:32:04.970Z,100692.47
2023-08-25T14:34:31.600Z,100697.97
2023-08-25T14:36:59.439Z,100701.06
2023-08-25T14:39:28.719Z,100698.16
2023-08-25T14:41:56.243Z,100692.38
2023-08-25T14:44:22.682Z,100689.97
2023-08-25T14:46:51.913Z,100701.16
2023-08-25T14:49:23.195Z,100705.81
2023-08-25T14:51:49.749Z,100703.97
2023-08-25T14:54:20.897Z,100709.75
2023-08-25T14:56:49.996Z,100710.59
2023-08-25T14:59:16.628Z,100717.91
2023-08-25T15:01:47.682Z,100713.47
2023-08-25T15:04:14.251Z,100717.13
2023-08-25T15:06:41.256Z,100731.78
2023-08-25T15:09:10.038Z,100728.41
2023-08-25T15:11:40.031Z,100727.94
2023-08-25T15:14:09.814Z,100731.59
2023-08-25T15:16:39.093Z,100743.72
2023-08-25T15:19:05.708Z,100742.13
2023-08-25T15:21:32.539Z,100749.19
2023-08-25T15:24:01.120Z,100742.66
2023-08-25T15:26:29.900Z,100740.22
2023-08-25T15:28:58.561Z,100734.47
2023-08-25T15:31:27.496Z,100743.63
2023-08-25T15:33:54.238Z,100737.34
2023-08-25T15:36:23.641Z,100734.72
2023-08-25T15:38:55.322Z,100736.09
2023-08-25T15:41:22.978Z,100730.66
2023-08-25T15:43:57.214Z,100734.06
2023-08-25T15:46:26.749Z,100742.44
2023-08-25T15:48:56.335Z,100745.31
2023-08-25T15:51:22.895Z,100743.97
2023-08-25T15:53:51.950Z,100736.56
2023-08-25T15:56:18.463Z,100735.50
2023-08-25T15:58:45.029Z,100739.66
2023-08-25T16:01:13.338Z,100729.44
2023-08-25T16:03:39.941Z,100732.81
2023-08-25T16:06:10.643Z,100732.53
2023-08-25T16:08:37.750Z,100730.44
2023-08-25T16:11:06.552Z,100735.44
2023-08-25T16:13:36.063Z,100737.84
2023-08-25T16:16:05.988Z,100740.75
2023-08-25T16:18:33.821Z,100751.72
2023-08-25T16:21:07.257Z,100740.28
2023-08-25T16:23:39.693Z,100737.72
2023-08-25T16:26:09.986Z,100736.72
2023-08-25T16:28:41.602Z,100735.47
2023-08-25T16:31:12.741Z,100731.28
2023-08-25T16:33:45.465Z,100726.03
2023-08-25T16:36:15.007Z,100730.25
2023-08-25T16:38:43.955Z,100728.44
2023-08-25T16:41:17.645Z,100732.63
2023-08-25T16:43:46.573Z,100732.63
2023-08-25T16:46:13.674Z,100726.84
2023-08-25T16:48:41.690Z,100734.66
2023-08-25T16:51:13.318Z,100748.44
2023-08-25T16:53:41.032Z,100744.41
2023-08-25T16:56:15.029Z,100735.25
2023-08-25T16:58:45.016Z,100738.38
2023-08-25T17:01:19.940Z,100742.25
2023-08-25T17:03:51.469Z,100739.13
2023-08-25T17:06:21.182Z,100738.31
2023-08-25T17:08:48.994Z,100746.59
2023-08-25T17:11:18.278Z,100740.78
2023-08-25T17:13:44.889Z,100749.34
2023-08-25T17:16:12.946Z,100747.22
2023-08-25T17:18:39.817Z,100747.69
2023-08-25T17:21:06.361Z,100747.13
2023-08-25T17:23:33.454Z,100752.63
2023-08-25T17:26:00.389Z,100752.53
2023-08-25T17:28:30.683Z,100745.44
2023-08-25T17:31:07.979Z,100756.06
2023-08-25T17:33:35.666Z,100758.63
2023-08-25T17:36:06.952Z,100759.63
2023-08-25T17:38:34.391Z,100763.50
2023-08-25T17:41:11.509Z,100771.78
2023-08-25T17:43:41.410Z,100769.06
2023-08-25T17:46:13.099Z,100768.22
2023-08-25T17:48:42.509Z,100784.13
2023-08-25T17:51:09.078Z,100776.00
2023-08-25T17:53:36.381Z,100777.25
2023-08-25T17:56:05.776Z,100787.41
2023-08-25T17:58:32.405Z,100784.75
2023-08-25T18:01:07.256Z,100789.13
2023-08-25T18:03:37.703Z,100793.69
2023-08-25T18:06:06.777Z,100803.66
2023-08-25T18:08:40.639Z,100800.53
2023-08-25T18:11:11.871Z,100793.69
2023-08-25T18:13:39.825Z,100791.59
2023-08-25T18:16:09.985Z,100795.44
2023-08-25T18:18:37.838Z,100798.28
2023-08-25T18:21:07.060Z,100801.56
2023-08-25T18:23:35.474Z,100805.13
2023-08-25T18:26:05.020Z,100804.84
2023-08-25T18:28:33.670Z,100804.19
2023-08-25T18:31:01.542Z,100804.63
2023-08-25T18:33:29.763Z,100812.84
2023-08-25T18:36:00.103Z,100819.06
2023-08-25T18:38:26.984Z,100824.13
2023-08-25T18:41:00.614Z,100822.25
2023-08-25T18:43:27.264Z,100822.16
2023-08-25T18:46:02.085Z,100838.03
2023-08-25T18:48:32.343Z,100833.06
2023-08-25T18:50:58.986Z,100829.88
2023-08-25T18:53:25.522Z,100830.06
2023-08-25T18:55:57.825Z,100831.09
2023-08-25T18:58:24.548Z,100829.84
2023-08-25T19:00:52.250Z,100840.25
2023-08-25T19:03:23.322Z,100839.75
2023-08-25T19:05:52.533Z,100854.94
2023-08-25T19:08:22.334Z,100853.03
2023-08-25T19:10:54.117Z,100861.09
2023-08-25T19:13:21.163Z,100855.63
2023-08-25T19:16:06.067Z,100859.81
2023-08-25T19:18:34.770Z,100861.31
2023-08-25T19:21:08.788Z,100863.28
2023-08-25T19:23:35.452Z,100871.00
2023-08-25T19:26:04.037Z,100866.78
2023-08-25T19:28:31.407Z,100869.84
2023-08-25T19:31:01.389Z,100878.44
2023-08-25T19:33:30.271Z,100879.22
2023-08-25T19:35:57.473Z,100881.97
2023-08-25T19:38:26.519Z,100880.16
2023-08-25T19:40:53.800Z,100879.38
2023-08-25T19:43:21.678Z,100892.63
2023-08-25T19:45:49.492Z,100885.06
2023-08-25T19:48:19.280Z,100887.38
2023-08-25T19:50:53.677Z,100892.94
2023-08-25T19:53:20.606Z,100898.78
2023-08-25T19:55:47.172Z,100895.34
2023-08-25T19:58:18.581Z,100890.38
2023-08-25T20:00:47.436Z,100897.44
2023-08-25T20:03:15.787Z,100889.53
2023-08-25T20:06:03.627Z,100890.44
2023-08-25T20:08:30.766Z,100885.59
2023-08-25T20:11:05.116Z,100884.16
2023-08-25T20:13:33.183Z,100885.06
2023-08-25T20:16:03.428Z,100875.06
2023-08-25T20:18:31.142Z,100878.47
2023-08-25T20:20:57.824Z,100879.38
2023-08-25T20:23:30.341Z,100884.94
2023-08-25T20:25:59.901Z,100875.22
2023-08-25T20:28:31.169Z,100881.06
2023-08-25T20:30:57.793Z,100890.69
2023-08-25T20:33:27.229Z,100897.25
2023-08-25T20:35:58.952Z,100893.88
2023-08-25T20:38:26.253Z,100898.03
2023-08-25T20:40:58.745Z,100895.44
2023-08-25T20:43:25.524Z,100894.84
2023-08-25T20:46:18.392Z,100902.09
2023-08-25T20:48:50.517Z,100889.53
2023-08-25T20:51:24.553Z,100897.34
2023-08-25T20:53:54.039Z,100895.31
2023-08-25T20:56:23.871Z,100892.16
2023-08-25T20:58:52.857Z,100902.00
2023-08-25T21:01:20.184Z,100902.09
2023-08-25T21:03:52.370Z,100905.84
2023-08-25T21:06:21.659Z,100905.38
2023-08-25T21:08:49.686Z,100906.63
2023-08-25T21:11:17.408Z,100916.78
2023-08-25T21:13:46.982Z,100908.09
2023-08-25T21:16:17.365Z,100906.75
2023-08-25T21:18:46.692Z,100908.75
2023-08-25T21:21:14.647Z,100908.88
2023-08-25T21:23:48.260Z,100918.47
2023-08-25T21:26:18.580Z,100917.34
2023-08-25T21:28:46.450Z,100902.09
2023-08-25T21:31:12.976Z,100912.38
2023-08-25T21:33:39.471Z,100906.81
2023-08-25T21:36:11.861Z,100903.66
2023-08-25T21:38:43.392Z,100906.16
2023-08-25T21:41:12.409Z,100913.03
2023-08-25T21:43:43.648Z,100907.13
2023-08-25T21:46:10.259Z,100909.50
2023-08-25T21:48:36.892Z,100905.75
2023-08-25T21:51:04.118Z,100906.78
2023-08-25T21:53:31.988Z,100909.38
2023-08-25T21:56:01.765Z,100904.59
2023-08-25T21:58:28.453Z,100918.72
2023-08-25T22:00:55.403Z,100917.28
2023-08-25T22:03:24.497Z,100918.28
2023-08-25T22:05:57.006Z,100919.06
2023-08-25T22:08:24.404Z,100909.69
2023-08-25T22:10:50.919Z,100912.94
2023-08-25T22:13:17.612Z,100907.63
2023-08-25T22:15:44.177Z,100910.22
2023-08-25T22:18:13.956Z,100898.06
2023-08-25T22:20:43.200Z,100904.38
2023-08-25T22:23:12.447Z,100905.88
2023-08-25T22:25:41.336Z,100908.69
2023-08-25T22:28:09.202Z,100899.19
2023-08-25T22:30:35.733Z,100896.59
2023-08-25T22:35:32.827Z,100898.63
2023-08-25T22:38:01.876Z,100900.06
2023-08-25T22:40:28.521Z,100901.09
2023-08-25T22:42:56.653Z,100902.34
2023-08-25T22:45:23.265Z,100892.63
2023-08-25T22:47:52.644Z,100895.25
2023-08-25T22:50:19.313Z,100895.94
2023-08-25T22:52:45.800Z,100894.00
2023-08-25T22:55:16.168Z,100895.66
2023-08-25T22:57:42.680Z,100896.59
2023-08-25T23:00:09.972Z,100894.97
2023-08-25T23:02:37.136Z,100892.25
2023-08-25T23:05:05.131Z,100899.66
2023-08-25T23:07:33.912Z,100905.84
2023-08-25T23:10:00.429Z,100907.44
2023-08-25T23:12:34.522Z,100904.84
2023-08-25T23:15:03.476Z,100912.28
2023-08-25T23:17:34.658Z,100920.47
2023-08-25T23:20:02.184Z,100918.19
2023-08-25T23:22:28.889Z,100922.00
2023-08-25T23:24:55.397Z,100921.84
2023-08-25T23:27:29.446Z,100920.03
2023-08-25T23:29:58.271Z,100921.41
2023-08-25T23:32:27.066Z,100922.06
2023-08-25T23:34:58.257Z,100918.59
2023-08-25T23:37:24.886Z,100918.88
2023-08-25T23:39:51.492Z,100910.94
2023-08-25T23:42:18.202Z,100908.78
2023-08-25T23:44:47.081Z,100904.25
2023-08-25T23:47:16.839Z,100905.63
2023-08-25T23:49:44.059Z,100908.59
2023-08-25T23:52:13.379Z,100906.22
2023-08-25T23:54:40.859Z,100913.41
2023-08-25T23:57:07.416Z,100912.06
2023-08-25T23:59:36.377Z,100907.72
